Ankergracht — PCQL — position and weather

sailwx.info

Track history (hours):
 
Tides and Currents Weather Stations Pressure Air Temp Water Temp Dewpoint Dewpoint Depression Visibility Wind Speed Wind Dir Waves Ship Positions

Ankergracht

Last reported at 2014-Sep-21 05:33 UTC. Time now 2014-Sep-21 06:11 UTC.
Position N 54°41' E 020°12'.

Length 130 m; beam 19 m; draft 9 m.

Type: Cargo ship. MMSI: 244852000.

Date/timePositionNaut miles runAvg speedWind from/ knotsBaromVisibWave heightAir tempDewpointWater temp
2014-Sep-21 05:33N 54°41' E 020°12'0 0.0
2014-Sep-21 04:30N 54°41' E 020°12'0 0.0
2014-Sep-21 03:33N 54°41' E 020°12'0 0.0
2014-Sep-21 02:33N 54°41' E 020°12'0 0.0
2014-Sep-21 01:33N 54°41' E 020°12'0 0.0
2014-Sep-21 00:33N 54°41' E 020°12'0 0.0
2014-Sep-20 23:33N 54°41' E 020°12'0 0.0
2014-Sep-20 22:33N 54°41' E 020°12'0 0.0
2014-Sep-20 21:33N 54°41' E 020°12'0 0.0
2014-Sep-20 20:33N 54°41' E 020°12'0 0.0
2014-Sep-20 19:30N 54°41' E 020°12'0 0.0
2014-Sep-20 17:33N 54°41' E 020°12'0 0.0
2014-Sep-20 16:24N 54°41' E 020°12'0 0.0
2014-Sep-20 15:33N 54°41' E 020°12'0 0.0
2014-Sep-20 14:27N 54°41' E 020°12'1 1.0
2014-Sep-20 13:30N 54°41' E 020°10'10 7.7
2014-Sep-20 12:16N 54°38' E 019°55'5 6.4
2014-Sep-20 11:33N 54°40' E 019°48'7 7.0
2014-Sep-20 10:33N 54°44' E 019°38'1110.5
2014-Sep-20 09:33N 54°48' E 019°21'1010.4
2014-Sep-20 08:34N 54°51' E 019°04'1010.2
2014-Sep-20 07:33N 54°55' E 018°47'1110.6
2014-Sep-20 06:33N 54°58' E 018°30'1111.1
2014-Sep-20 05:33N 54°56' E 018°10'1211.6
2014-Sep-20 04:33N 54°55' E 017°50'1211.9
2014-Sep-20 03:33N 54°54' E 017°30'5911.8
2014-Sep-19 22:32N 54°43' E 015°49'1211.7
2014-Sep-19 21:32N 54°41' E 015°29'1111.5
2014-Sep-19 20:34N 54°40' E 015°10'1211.5
2014-Sep-19 19:33N 54°38' E 014°50'1111.4
2014-Sep-19 18:33N 54°36' E 014°31'1111.1
2014-Sep-19 17:33N 54°39' E 014°13'1212.1
2014-Sep-19 16:33N 54°46' E 013°56'1211.9
2014-Sep-19 15:34N 54°54' E 013°40'1212.0
2014-Sep-19 14:34N 55°01' E 013°24'1211.7
2014-Sep-19 13:33N 55°09' E 013°08'1111.3
2014-Sep-19 12:33N 55°15' E 012°51'10 9.5
2014-Sep-19 11:33N 55°21' E 012°38'1212.4
2014-Sep-19 10:34N 55°33' E 012°42'1313.1
2014-Sep-19 09:34N 55°46' E 012°42'1312.9
2014-Sep-19 08:33N 55°59' E 012°38'1111.2
2014-Sep-19 07:33N 56°08' E 012°27'1312.6
2014-Sep-19 06:34N 56°15' E 012°08'1312.3
2014-Sep-19 05:29N 56°27' E 011°58'1213.1
2014-Sep-19 04:33N 56°39' E 011°54'1313.4
2014-Sep-19 03:34N 56°52' E 011°47'1413.6
2014-Sep-19 02:33N 57°05' E 011°39'1313.1
2014-Sep-19 01:33N 57°17' E 011°30'1312.5
2014-Sep-19 00:33N 57°29' E 011°21'1212.5
2014-Sep-18 23:33N 57°37' E 011°04'1313.0
2014-Sep-18 22:33N 57°46' E 010°46'1212.1
2014-Sep-18 21:33N 57°47' E 010°24'1211.1
2014-Sep-18 20:29N 57°46' E 010°02'23711.5
2014-Sep-18 00:00N 56°54' E 002°54'   060 / 101017.0 1.516.515.414.7
2014-Sep-15 01:05N 57°28' W 001°39'611.8
2014-Sep-15 00:33N 57°34' W 001°39'1110.8
2014-Sep-14 23:33N 57°44' W 001°44'1211.1
2014-Sep-14 22:28N 57°55' W 001°57'5511.3
2014-Sep-14 17:33N 58°39' W 002°59'8 7.7
2014-Sep-14 16:33N 58°43' W 003°11'1111.1
2014-Sep-14 15:33N 58°44' W 003°33'1111.5
2014-Sep-14 14:33N 58°44' W 003°55'1211.7
2014-Sep-14 13:33N 58°44' W 004°17'1212.3
2014-Sep-14 12:33N 58°45' W 004°41'2812.5
2014-Sep-14 10:20N 58°42' W 005°34'3512.0
2014-Sep-14 07:27N 58°37' W 006°40'1812.4
2014-Sep-14 06:00N 58°30' W 007°12'13711.4 090 / 121027.0 5.4 0.514.012.313.8
2014-Sep-13 18:00N 58°12' W 011°30'41111.4 160 / 61027.0 2.2 0.516.514.114.7
2014-Sep-12 06:00N 55°36' W 023°06'6510.9 030 / 81017.0 5.4 0.514.012.313.8
2014-Sep-12 00:00N 55°00' W 024°42'6911.5 330 / 71019.010.8 0.514.510.113.8
2014-Sep-11 18:00N 54°30' W 026°30'6711.2 25.0 13.7
2014-Sep-11 12:00N 54°06' W 028°18'7312.2 170 / 61021.010.8 0.513.0 8.413.1
2014-Sep-11 06:00N 53°30' W 030°06'   260 / 81019.5 5.4 0.513.010.312.8
Track history (hours):
 
Tides and Currents Weather Stations Pressure Air Temp Water Temp Dewpoint Dewpoint Depression Visibility Wind Speed Wind Dir Waves Ship Positions

Ankergracht

Last reported at 2014-Sep-21 05:33 UTC. Time now 2014-Sep-21 06:11 UTC.
Position N 54°41' E 020°12'.

Length 130 m; beam 19 m; draft 9 m.

Type: Cargo ship. MMSI: 244852000.

Date/timePositionNaut miles runAvg speedWind from/ knotsBaromVisibWave heightAir tempDewpointWater temp
2014-Sep-21 05:33N 54°41' E 020°12'0 0.0
2014-Sep-21 04:30N 54°41' E 020°12'0 0.0
2014-Sep-21 03:33N 54°41' E 020°12'0 0.0
2014-Sep-21 02:33N 54°41' E 020°12'0 0.0
2014-Sep-21 01:33N 54°41' E 020°12'0 0.0
2014-Sep-21 00:33N 54°41' E 020°12'0 0.0
2014-Sep-20 23:33N 54°41' E 020°12'0 0.0
2014-Sep-20 22:33N 54°41' E 020°12'0 0.0
2014-Sep-20 21:33N 54°41' E 020°12'0 0.0
2014-Sep-20 20:33N 54°41' E 020°12'0 0.0
2014-Sep-20 19:30N 54°41' E 020°12'0 0.0
2014-Sep-20 17:33N 54°41' E 020°12'0 0.0
2014-Sep-20 16:24N 54°41' E 020°12'0 0.0
2014-Sep-20 15:33N 54°41' E 020°12'0 0.0
2014-Sep-20 14:27N 54°41' E 020°12'1 1.0
2014-Sep-20 13:30N 54°41' E 020°10'10 7.7
2014-Sep-20 12:16N 54°38' E 019°55'5 6.4
2014-Sep-20 11:33N 54°40' E 019°48'7 7.0
2014-Sep-20 10:33N 54°44' E 019°38'1110.5
2014-Sep-20 09:33N 54°48' E 019°21'1010.4
2014-Sep-20 08:34N 54°51' E 019°04'1010.2
2014-Sep-20 07:33N 54°55' E 018°47'1110.6
2014-Sep-20 06:33N 54°58' E 018°30'1111.1
2014-Sep-20 05:33N 54°56' E 018°10'1211.6
2014-Sep-20 04:33N 54°55' E 017°50'1211.9
2014-Sep-20 03:33N 54°54' E 017°30'5911.8
2014-Sep-19 22:32N 54°43' E 015°49'1211.7
2014-Sep-19 21:32N 54°41' E 015°29'1111.5
2014-Sep-19 20:34N 54°40' E 015°10'1211.5
2014-Sep-19 19:33N 54°38' E 014°50'1111.4
2014-Sep-19 18:33N 54°36' E 014°31'1111.1
2014-Sep-19 17:33N 54°39' E 014°13'1212.1
2014-Sep-19 16:33N 54°46' E 013°56'1211.9
2014-Sep-19 15:34N 54°54' E 013°40'1212.0
2014-Sep-19 14:34N 55°01' E 013°24'1211.7
2014-Sep-19 13:33N 55°09' E 013°08'1111.3
2014-Sep-19 12:33N 55°15' E 012°51'10 9.5
2014-Sep-19 11:33N 55°21' E 012°38'1212.4
2014-Sep-19 10:34N 55°33' E 012°42'1313.1
2014-Sep-19 09:34N 55°46' E 012°42'1312.9
2014-Sep-19 08:33N 55°59' E 012°38'1111.2
2014-Sep-19 07:33N 56°08' E 012°27'1312.6
2014-Sep-19 06:34N 56°15' E 012°08'1312.3
2014-Sep-19 05:29N 56°27' E 011°58'1213.1
2014-Sep-19 04:33N 56°39' E 011°54'1313.4
2014-Sep-19 03:34N 56°52' E 011°47'1413.6
2014-Sep-19 02:33N 57°05' E 011°39'1313.1
2014-Sep-19 01:33N 57°17' E 011°30'1312.5
2014-Sep-19 00:33N 57°29' E 011°21'1212.5
2014-Sep-18 23:33N 57°37' E 011°04'1313.0
2014-Sep-18 22:33N 57°46' E 010°46'1212.1
2014-Sep-18 21:33N 57°47' E 010°24'1211.1
2014-Sep-18 20:29N 57°46' E 010°02'23711.5
2014-Sep-18 00:00N 56°54' E 002°54'   060 / 101017.0 1.516.515.414.7
2014-Sep-15 01:05N 57°28' W 001°39'611.8
2014-Sep-15 00:33N 57°34' W 001°39'1110.8
2014-Sep-14 23:33N 57°44' W 001°44'1211.1
2014-Sep-14 22:28N 57°55' W 001°57'5511.3
2014-Sep-14 17:33N 58°39' W 002°59'8 7.7
2014-Sep-14 16:33N 58°43' W 003°11'1111.1
2014-Sep-14 15:33N 58°44' W 003°33'1111.5
2014-Sep-14 14:33N 58°44' W 003°55'1211.7
2014-Sep-14 13:33N 58°44' W 004°17'1212.3
2014-Sep-14 12:33N 58°45' W 004°41'2812.5
2014-Sep-14 10:20N 58°42' W 005°34'3512.0
2014-Sep-14 07:27N 58°37' W 006°40'1812.4
2014-Sep-14 06:00N 58°30' W 007°12'13711.4 090 / 121027.0 5.4 0.514.012.313.8
2014-Sep-13 18:00N 58°12' W 011°30'41111.4 160 / 61027.0 2.2 0.516.514.114.7
2014-Sep-12 06:00N 55°36' W 023°06'6510.9 030 / 81017.0 5.4 0.514.012.313.8
2014-Sep-12 00:00N 55°00' W 024°42'6911.5 330 / 71019.010.8 0.514.510.113.8
2014-Sep-11 18:00N 54°30' W 026°30'6711.2 25.0 13.7
2014-Sep-11 12:00N 54°06' W 028°18'7312.2 170 / 61021.010.8 0.513.0 8.413.1
2014-Sep-11 06:00N 53°30' W 030°06'   260 / 81019.5 5.4 0.513.010.312.8

Dump ship's entire track history